Time;durP1;ratioP1;P1;durP2;ratioP2;P2;SDS_P1;SDS_P2;PMS_P1;PMS_P2;Temp;Humidity;BMP_temperature;BMP_pressure;BME280_temperature;BME280_humidity;BME280_pressure;Samples;Min_cycle;Max_cycle;Signal;HPM_P1;HPM_P2
2023/08/27 00:00:29;;;;;;;6.73;5.20;;;15.40;99.90;;;;;;2061986;28;20238;-66
2023/08/27 00:01:30;;;;;;;7.23;5.30;;;15.50;99.90;;;;;;2070027;28;20222;-67
2023/08/27 00:02:30;;;;;;;5.93;5.13;;;15.40;99.90;;;;;;2062529;28;20230;-65
2023/08/27 00:03:31;;;;;;;6.10;5.50;;;15.40;99.90;;;;;;2061676;28;20482;-66
2023/08/27 00:04:32;;;;;;;6.47;5.03;;;15.40;99.90;;;;;;2062576;28;20234;-66
2023/08/27 00:05:32;;;;;;;5.60;5.10;;;15.40;99.90;;;;;;2062538;28;20237;-65
2023/08/27 00:06:33;;;;;;;7.07;5.20;;;15.40;99.90;;;;;;2065610;28;20270;-68
2023/08/27 00:07:36;;;;;;;5.10;4.67;;;15.40;99.90;;;;;;2063690;28;20710;-68
2023/08/27 00:08:37;;;;;;;7.20;4.60;;;15.40;99.90;;;;;;2060680;28;20660;-67
2023/08/27 00:09:39;;;;;;;8.53;5.07;;;15.50;99.90;;;;;;2062729;28;20472;-67
2023/08/27 00:10:40;;;;;;;5.63;5.07;;;15.50;99.90;;;;;;2063627;28;20659;-67
2023/08/27 00:11:41;;;;;;;5.27;4.67;;;15.50;99.90;;;;;;2063631;28;20499;-67
2023/08/27 00:12:41;;;;;;;8.03;5.00;;;15.60;99.90;;;;;;2063701;28;20232;-67
2023/08/27 00:13:42;;;;;;;5.63;5.00;;;15.50;99.90;;;;;;2062910;28;20498;-68
2023/08/27 00:14:43;;;;;;;4.87;4.37;;;15.50;99.90;;;;;;2069973;28;20221;-67
2023/08/27 00:15:46;;;;;;;5.87;4.43;;;15.40;99.90;;;;;;2070597;28;20631;-67
2023/08/27 00:16:47;;;;;;;5.57;4.73;;;15.30;99.90;;;;;;2063754;28;20223;-68
2023/08/27 00:17:48;;;;;;;7.13;4.83;;;15.30;99.90;;;;;;2070941;28;20471;-67
2023/08/27 00:18:49;;;;;;;8.90;5.13;;;15.40;99.90;;;;;;2071123;28;20679;-67
2023/08/27 00:19:49;;;;;;;5.40;4.90;;;15.50;99.90;;;;;;2063557;28;20229;-68
2023/08/27 00:20:50;;;;;;;4.63;4.17;;;15.50;99.90;;;;;;2064928;28;20771;-68
2023/08/27 00:21:52;;;;;;;5.63;4.43;;;15.60;99.90;;;;;;2054917;28;20226;-67
2023/08/27 00:22:53;;;;;;;5.47;4.23;;;15.60;99.90;;;;;;2054925;28;20229;-67
2023/08/27 00:23:54;;;;;;;7.70;4.50;;;15.60;99.90;;;;;;2061347;28;20464;-68
2023/08/27 00:24:54;;;;;;;6.83;4.67;;;15.60;99.90;;;;;;2061646;28;20289;-68
2023/08/27 00:25:55;;;;;;;4.50;4.10;;;15.60;99.90;;;;;;2059380;28;20262;-67
2023/08/27 00:26:56;;;;;;;4.90;4.20;;;15.60;99.90;;;;;;2060076;28;20284;-68
2023/08/27 00:27:56;;;;;;;5.40;4.40;;;15.50;99.90;;;;;;2060987;28;21836;-68
2023/08/27 00:28:58;;;;;;;7.67;4.33;;;15.50;99.90;;;;;;2059223;28;20229;-68
2023/08/27 00:30:00;;;;;;;8.90;4.43;;;15.50;99.90;;;;;;2069947;28;20218;-67
2023/08/27 00:31:03;;;;;;;5.33;4.80;;;15.50;99.90;;;;;;2054904;28;20468;-68
2023/08/27 00:32:04;;;;;;;5.33;4.30;;;15.40;99.90;;;;;;2045900;28;20921;-67
2023/08/27 00:33:05;;;;;;;6.50;4.30;;;15.50;99.90;;;;;;2047428;28;20425;-67
2023/08/27 00:34:05;;;;;;;5.83;4.17;;;15.50;99.90;;;;;;2055819;28;20421;-67
2023/08/27 00:35:06;;;;;;;5.90;3.83;;;15.50;99.90;;;;;;2064461;28;20185;-67
2023/08/27 00:36:07;;;;;;;6.33;4.40;;;15.50;99.90;;;;;;2063003;28;20213;-68
2023/08/27 00:37:08;;;;;;;4.60;4.13;;;15.50;99.90;;;;;;2062861;28;20425;-68
2023/08/27 00:38:09;;;;;;;4.40;4.00;;;15.40;99.90;;;;;;2062807;28;20182;-68
2023/08/27 00:39:09;;;;;;;4.00;3.70;;;15.30;99.90;;;;;;2063846;28;20670;-67
2023/08/27 00:40:10;;;;;;;4.33;3.93;;;15.30;99.90;;;;;;2063539;28;20206;-69
2023/08/27 00:41:11;;;;;;;4.60;4.20;;;15.30;99.90;;;;;;2062977;28;20236;-68
2023/08/27 00:42:12;;;;;;;7.97;4.63;;;15.30;99.90;;;;;;2062997;28;20674;-67
2023/08/27 00:43:12;;;;;;;5.70;4.17;;;15.30;99.90;;;;;;2071197;28;20178;-67
2023/08/27 00:44:13;;;;;;;5.47;3.87;;;15.30;99.90;;;;;;2063536;28;20195;-67
2023/08/27 00:45:14;;;;;;;6.43;4.13;;;15.40;99.90;;;;;;2063649;28;20192;-67
2023/08/27 00:46:15;;;;;;;6.13;4.50;;;15.40;99.90;;;;;;2054746;28;20186;-68
2023/08/27 00:47:16;;;;;;;6.00;4.33;;;15.40;99.90;;;;;;2047091;28;20207;-67
2023/08/27 00:48:17;;;;;;;5.47;4.00;;;15.40;99.90;;;;;;2046971;28;20191;-68
2023/08/27 00:49:18;;;;;;;5.17;4.20;;;15.40;99.90;;;;;;2044542;28;20457;-67
2023/08/27 00:50:19;;;;;;;5.50;4.20;;;15.50;99.90;;;;;;2060587;28;20253;-68
2023/08/27 00:51:20;;;;;;;6.40;5.10;;;15.50;99.90;;;;;;2071120;28;20236;-67
2023/08/27 00:52:21;;;;;;;5.97;4.27;;;15.40;99.90;;;;;;2063016;28;20443;-68
2023/08/27 00:53:21;;;;;;;5.30;4.20;;;15.30;99.90;;;;;;2054957;28;20245;-67
2023/08/27 00:54:24;;;;;;;6.00;3.93;;;15.30;99.90;;;;;;2054595;28;20781;-68
2023/08/27 00:55:25;;;;;;;4.33;3.77;;;15.30;99.90;;;;;;2059249;28;20938;-67
2023/08/27 00:56:25;;;;;;;5.63;4.10;;;15.40;99.90;;;;;;2066897;28;20474;-67
2023/08/27 00:57:27;;;;;;;5.23;4.57;;;15.40;99.90;;;;;;2062791;28;20226;-67
2023/08/27 00:58:28;;;;;;;5.00;4.60;;;15.40;99.90;;;;;;2049901;28;20700;-67
2023/08/27 00:59:29;;;;;;;6.73;4.63;;;15.40;99.90;;;;;;2055864;28;20469;-68
2023/08/27 01:00:30;;;;;;;6.77;3.57;;;15.40;99.90;;;;;;2061960;28;20245;-68
2023/08/27 01:01:31;;;;;;;5.20;4.70;;;15.50;99.90;;;;;;2062526;28;20467;-68
2023/08/27 01:02:33;;;;;;;5.00;4.30;;;15.40;99.90;;;;;;2057095;28;20313;-68
2023/08/27 01:03:34;;;;;;;7.30;4.77;;;15.40;99.90;;;;;;2053736;28;20551;-68
2023/08/27 01:04:35;;;;;;;4.53;3.90;;;15.40;99.90;;;;;;2054458;28;20476;-68
2023/08/27 01:05:36;;;;;;;5.20;4.70;;;15.50;99.90;;;;;;2061087;28;20672;-68
2023/08/27 01:06:37;;;;;;;7.30;4.97;;;15.50;99.90;;;;;;2070828;28;20849;-68
2023/08/27 01:07:59;;;;;;;6.53;4.10;;;15.50;99.90;;;;;;2062569;28;20236;-67
2023/08/27 01:09:32;;;;;;;4.80;3.93;;;15.50;99.90;;;;;;2052887;28;20261;-67
2023/08/27 01:10:47;;;;;;;6.70;4.20;;;15.50;99.90;;;;;;2052108;28;20522;-67
2023/08/27 01:12:09;;;;;;;6.93;4.70;;;15.30;99.90;;;;;;2052661;28;20468;-67
2023/08/27 01:13:25;;;;;;;4.90;3.80;;;15.10;99.90;;;;;;2058386;28;20938;-66
2023/08/27 01:14:29;;;;;;;5.93;3.97;;;15.10;99.90;;;;;;2065379;28;20459;-66
2023/08/27 01:15:32;;;;;;;4.23;3.83;;;15.10;99.90;;;;;;2063617;28;21061;-66
2023/08/27 01:16:38;;;;;;;5.67;3.73;;;15.00;99.90;;;;;;2060691;28;20546;-67
2023/08/27 01:17:39;;;;;;;4.80;4.23;;;15.00;99.90;;;;;;2059864;28;20495;-67
2023/08/27 01:18:41;;;;;;;6.10;4.27;;;14.90;99.90;;;;;;2053067;28;20469;-67
2023/08/27 01:19:42;;;;;;;4.80;4.30;;;14.90;99.90;;;;;;2061576;28;20467;-68
2023/08/27 01:20:43;;;;;;;6.23;3.70;;;14.90;99.90;;;;;;2049876;28;20485;-68
2023/08/27 01:21:44;;;;;;;8.40;4.33;;;14.90;99.90;;;;;;2058722;28;20471;-67
2023/08/27 01:22:45;;;;;;;6.73;4.40;;;14.80;99.90;;;;;;2071903;28;20233;-68
2023/08/27 01:23:46;;;;;;;9.10;4.80;;;14.80;99.90;;;;;;2056857;28;20480;-67
2023/08/27 01:24:47;;;;;;;4.67;4.27;;;14.90;99.90;;;;;;2057368;28;20230;-68
2023/08/27 01:25:50;;;;;;;6.40;4.33;;;14.90;99.90;;;;;;2060446;28;20718;-70
2023/08/27 01:26:59;;;;;;;4.50;4.10;;;14.90;99.90;;;;;;2062570;28;20238;-67
2023/08/27 01:28:16;;;;;;;4.13;3.73;;;14.90;99.90;;;;;;2066134;28;20552;-67
2023/08/27 01:29:26;;;;;;;6.77;3.87;;;15.00;99.90;;;;;;2062962;28;20475;-69
2023/08/27 01:30:34;;;;;;;4.40;3.70;;;15.00;99.90;;;;;;2061065;28;20464;-68
2023/08/27 01:31:42;;;;;;;4.90;3.93;;;15.00;99.90;;;;;;2045325;28;20469;-68
2023/08/27 01:33:16;;;;;;;5.20;3.40;;;15.10;99.90;;;;;;2052018;28;20472;-68
2023/08/27 01:34:20;;;;;;;4.27;3.30;;;15.10;99.90;;;;;;2058206;28;20523;-68
2023/08/27 01:35:21;;;;;;;5.93;4.03;;;15.10;99.90;;;;;;2056062;28;20425;-68
2023/08/27 01:36:23;;;;;;;4.07;3.13;;;15.10;99.90;;;;;;2044954;28;20489;-68
2023/08/27 01:37:24;;;;;;;4.17;2.97;;;15.20;99.90;;;;;;2061388;28;20497;-68
2023/08/27 01:38:25;;;;;;;3.57;3.10;;;15.20;99.90;;;;;;2068691;28;20505;-68
2023/08/27 01:39:26;;;;;;;3.40;2.80;;;15.20;99.90;;;;;;2062235;28;20468;-68
2023/08/27 01:40:27;;;;;;;2.97;2.77;;;15.20;99.90;;;;;;2061866;28;20234;-68
2023/08/27 01:41:27;;;;;;;3.43;3.13;;;15.20;99.90;;;;;;2062473;28;20753;-68
2023/08/27 01:42:28;;;;;;;4.50;3.33;;;15.20;99.90;;;;;;2061453;28;20673;-68
2023/08/27 01:43:29;;;;;;;4.67;3.33;;;15.10;99.90;;;;;;2057390;28;20317;-68
2023/08/27 01:44:30;;;;;;;5.60;3.47;;;15.00;99.90;;;;;;2063308;28;20709;-68
2023/08/27 01:45:31;;;;;;;4.20;3.60;;;15.00;99.90;;;;;;2068126;28;20236;-68
2023/08/27 01:46:32;;;;;;;4.40;3.50;;;14.90;99.90;;;;;;2062114;28;20478;-68
2023/08/27 01:47:33;;;;;;;5.03;3.77;;;14.90;99.90;;;;;;2062009;28;20313;-68
2023/08/27 01:48:33;;;;;;;4.40;4.00;;;14.90;99.90;;;;;;2053786;28;20227;-67
2023/08/27 01:49:34;;;;;;;7.23;4.07;;;15.00;99.90;;;;;;2061389;28;20332;-67
2023/08/27 01:50:35;;;;;;;5.43;3.70;;;15.00;99.90;;;;;;2062583;28;20644;-67
2023/08/27 01:51:35;;;;;;;4.10;3.07;;;15.10;99.90;;;;;;2049255;28;20326;-67
2023/08/27 01:52:36;;;;;;;3.90;3.60;;;15.20;99.90;;;;;;2048666;28;20739;-67
2023/08/27 01:53:37;;;;;;;5.30;4.00;;;15.20;99.90;;;;;;2069571;28;20225;-67
2023/08/27 01:54:37;;;;;;;5.13;3.83;;;15.20;99.90;;;;;;2062169;28;20288;-67
2023/08/27 01:55:38;;;;;;;4.87;3.77;;;15.20;99.90;;;;;;2067130;28;20229;-66
2023/08/27 01:56:39;;;;;;;6.73;4.03;;;15.20;99.90;;;;;;2062410;28;20303;-67
2023/08/27 01:57:39;;;;;;;4.57;3.77;;;15.20;99.90;;;;;;2054536;28;20292;-67
2023/08/27 01:58:41;;;;;;;4.13;3.63;;;15.20;99.90;;;;;;2061411;28;20226;-67
2023/08/27 01:59:41;;;;;;;3.97;3.67;;;15.10;99.90;;;;;;2061508;28;20240;-67
2023/08/27 02:00:43;;;;;;;4.27;3.70;;;15.20;99.90;;;;;;2061604;28;20483;-67
2023/08/27 02:01:43;;;;;;;4.27;3.47;;;15.10;99.90;;;;;;2062866;28;20234;-67
2023/08/27 02:02:45;;;;;;;5.20;4.03;;;15.20;99.90;;;;;;2062720;28;20471;-66
2023/08/27 02:03:45;;;;;;;6.27;4.20;;;15.20;99.90;;;;;;2069565;28;20252;-67
2023/08/27 02:04:46;;;;;;;5.40;3.67;;;15.40;99.90;;;;;;2069540;28;20467;-67
2023/08/27 02:05:48;;;;;;;4.00;3.60;;;15.40;99.90;;;;;;2061512;28;20226;-67
2023/08/27 02:06:48;;;;;;;3.87;3.53;;;15.40;99.90;;;;;;2061676;28;20257;-65
2023/08/27 02:07:49;;;;;;;4.70;3.97;;;15.40;99.90;;;;;;2062667;28;21022;-67
2023/08/27 02:08:50;;;;;;;5.73;3.80;;;15.50;99.90;;;;;;2065825;28;20237;-67
2023/08/27 02:09:50;;;;;;;3.90;3.20;;;15.50;99.90;;;;;;2059877;28;20256;-66
2023/08/27 02:10:51;;;;;;;4.90;3.57;;;15.40;99.90;;;;;;2063014;28;20229;-68
2023/08/27 02:11:52;;;;;;;3.47;3.03;;;15.40;99.90;;;;;;2056903;28;20235;-68
2023/08/27 02:12:53;;;;;;;4.93;3.10;;;15.40;99.90;;;;;;2056964;28;20237;-67
2023/08/27 02:13:54;;;;;;;8.63;3.20;;;15.40;99.90;;;;;;2054565;28;20470;-66
2023/08/27 02:14:55;;;;;;;4.47;3.00;;;15.30;99.90;;;;;;2055501;28;20289;-65
2023/08/27 02:15:55;;;;;;;3.87;3.50;;;15.20;99.90;;;;;;2057988;28;20270;-68
2023/08/27 02:16:56;;;;;;;4.73;3.40;;;15.20;99.90;;;;;;2061410;28;20313;-68
2023/08/27 02:17:57;;;;;;;4.00;3.27;;;15.30;99.90;;;;;;2061212;28;20271;-68
2023/08/27 02:18:57;;;;;;;4.17;2.87;;;15.30;99.90;;;;;;2061330;28;20230;-68
2023/08/27 02:19:58;;;;;;;3.20;2.90;;;15.30;99.90;;;;;;2050635;28;20231;-69
2023/08/27 02:20:59;;;;;;;3.60;3.30;;;15.30;99.90;;;;;;2060011;28;20225;-68
2023/08/27 02:22:01;;;;;;;4.03;3.33;;;15.30;99.90;;;;;;2061035;28;20503;-67
2023/08/27 02:23:03;;;;;;;3.53;3.13;;;15.30;99.90;;;;;;2059338;28;20217;-69
2023/08/27 02:24:04;;;;;;;5.30;3.97;;;15.40;99.90;;;;;;2063447;28;20497;-67
2023/08/27 02:25:07;;;;;;;4.50;3.90;;;15.40;99.90;;;;;;2069736;28;20426;-68
2023/08/27 02:26:08;;;;;;;4.37;3.40;;;15.40;99.90;;;;;;2071171;28;20431;-68
2023/08/27 02:27:08;;;;;;;6.63;3.90;;;15.30;99.90;;;;;;2061632;28;20522;-68
2023/08/27 02:28:09;;;;;;;6.03;3.70;;;15.30;99.90;;;;;;2062570;28;20190;-67
2023/08/27 02:29:10;;;;;;;6.47;4.60;;;15.30;99.90;;;;;;2060973;28;20749;-68
2023/08/27 02:30:11;;;;;;;5.93;4.60;;;15.30;99.90;;;;;;2062328;28;20205;-68
2023/08/27 02:31:12;;;;;;;4.73;4.10;;;15.20;99.90;;;;;;2063561;28;20234;-68
2023/08/27 02:32:12;;;;;;;4.90;4.37;;;15.30;99.90;;;;;;2060970;28;20867;-68
2023/08/27 02:33:13;;;;;;;4.53;3.90;;;15.30;99.90;;;;;;2063349;28;20190;-67
2023/08/27 02:34:14;;;;;;;5.07;3.60;;;15.40;99.90;;;;;;2062807;28;20194;-68
2023/08/27 02:35:15;;;;;;;6.10;4.27;;;15.50;99.90;;;;;;2063263;28;20858;-68
2023/08/27 02:36:16;;;;;;;7.60;4.73;;;15.50;99.90;;;;;;2063806;28;20436;-68
2023/08/27 02:37:16;;;;;;;5.67;4.07;;;15.50;99.90;;;;;;2063565;28;20187;-68
2023/08/27 02:38:18;;;;;;;4.33;3.80;;;15.40;99.90;;;;;;2063647;28;20210;-67
2023/08/27 02:39:18;;;;;;;3.90;3.50;;;15.30;99.90;;;;;;2063495;28;20640;-68
2023/08/27 02:40:19;;;;;;;5.03;4.13;;;15.20;99.90;;;;;;2063200;28;20522;-67
2023/08/27 02:41:20;;;;;;;4.57;3.57;;;15.10;99.90;;;;;;2063772;28;20212;-68
2023/08/27 02:42:20;;;;;;;4.40;3.67;;;15.00;99.90;;;;;;2062886;28;20194;-68
2023/08/27 02:43:21;;;;;;;5.63;3.23;;;15.00;99.90;;;;;;2053949;28;20671;-66
2023/08/27 02:44:22;;;;;;;3.47;2.97;;;14.90;99.90;;;;;;2058896;28;20254;-67
2023/08/27 02:45:22;;;;;;;3.97;3.03;;;14.80;99.90;;;;;;2063484;28;20253;-68
2023/08/27 02:46:23;;;;;;;4.13;2.90;;;14.80;99.90;;;;;;2055464;28;20323;-67
2023/08/27 02:47:24;;;;;;;4.67;2.77;;;14.80;99.90;;;;;;2046268;28;20389;-68
2023/08/27 02:48:24;;;;;;;6.60;3.10;;;14.70;99.90;;;;;;2050658;28;20242;-68
2023/08/27 02:49:25;;;;;;;5.00;3.23;;;14.60;99.90;;;;;;2059033;28;20660;-67
2023/08/27 02:50:26;;;;;;;3.63;3.33;;;14.60;99.90;;;;;;2059192;28;20233;-68
2023/08/27 02:51:27;;;;;;;3.67;3.33;;;14.60;99.90;;;;;;2055999;28;20710;-68
2023/08/27 02:52:27;;;;;;;5.17;4.07;;;14.70;99.90;;;;;;2054258;28;20230;-67
2023/08/27 02:53:28;;;;;;;4.13;3.30;;;14.80;99.90;;;;;;2054180;28;20837;-69
2023/08/27 02:54:30;;;;;;;4.10;3.70;;;14.80;99.90;;;;;;2067203;28;20682;-67
2023/08/27 02:55:34;;;;;;;4.43;3.93;;;14.90;99.90;;;;;;2062633;28;20479;-68
2023/08/27 02:56:34;;;;;;;5.10;3.80;;;15.00;99.90;;;;;;2063116;28;20249;-67
2023/08/27 02:57:36;;;;;;;3.40;3.10;;;14.90;99.90;;;;;;2063045;28;20499;-68
2023/08/27 02:58:37;;;;;;;4.60;4.10;;;14.90;99.90;;;;;;2063417;28;20245;-68
2023/08/27 02:59:37;;;;;;;4.00;3.60;;;14.90;99.90;;;;;;2063122;28;20484;-68
2023/08/27 03:00:41;;;;;;;4.57;3.43;;;14.90;99.90;;;;;;2055144;28;20614;-68
2023/08/27 03:01:42;;;;;;;6.37;3.53;;;14.80;99.90;;;;;;2054510;28;20762;-66
2023/08/27 03:02:42;;;;;;;4.03;3.63;;;14.80;99.90;;;;;;2063599;28;20487;-67
2023/08/27 03:03:43;;;;;;;4.30;2.87;;;14.80;99.90;;;;;;2063544;28;20234;-68
2023/08/27 03:04:44;;;;;;;6.10;3.90;;;14.70;99.90;;;;;;2063218;28;20234;-67
2023/08/27 03:05:45;;;;;;;6.07;3.80;;;14.70;99.90;;;;;;2059056;28;20352;-67
2023/08/27 03:06:45;;;;;;;4.60;3.57;;;14.60;99.90;;;;;;2063830;28;20832;-68
2023/08/27 03:07:46;;;;;;;3.80;3.40;;;14.60;99.90;;;;;;2063010;28;20229;-67
2023/08/27 03:08:47;;;;;;;4.27;3.43;;;14.70;99.90;;;;;;2047061;28;20231;-67
2023/08/27 03:09:47;;;;;;;4.33;3.20;;;14.70;99.90;;;;;;2047211;28;20232;-67
2023/08/27 03:10:49;;;;;;;3.43;3.13;;;14.60;99.90;;;;;;2064604;28;20226;-67
2023/08/27 03:11:49;;;;;;;3.70;3.40;;;14.50;99.90;;;;;;2068360;28;20230;-67
2023/08/27 03:12:50;;;;;;;4.63;3.40;;;14.50;99.90;;;;;;2068232;28;20467;-67
2023/08/27 03:13:51;;;;;;;3.43;3.13;;;14.40;99.90;;;;;;2075111;28;20225;-68
2023/08/27 03:14:51;;;;;;;3.23;2.93;;;14.40;99.90;;;;;;2072389;28;20311;-67
2023/08/27 03:15:52;;;;;;;3.90;3.53;;;14.40;99.90;;;;;;2050510;28;20278;-70
2023/08/27 03:16:53;;;;;;;3.57;3.27;;;14.40;99.90;;;;;;2058176;28;20231;-67
2023/08/27 03:17:53;;;;;;;4.03;3.63;;;14.30;99.90;;;;;;2070609;28;20225;-68
2023/08/27 03:18:55;;;;;;;3.40;3.10;;;14.40;99.90;;;;;;2070911;28;20268;-67
2023/08/27 03:19:55;;;;;;;3.97;3.50;;;14.40;99.90;;;;;;2065782;28;20237;-68
2023/08/27 03:20:56;;;;;;;7.00;3.70;;;14.40;99.90;;;;;;2065847;28;20495;-68
2023/08/27 03:21:57;;;;;;;4.07;3.47;;;14.40;99.90;;;;;;2070636;28;20225;-68
2023/08/27 03:22:58;;;;;;;5.10;4.27;;;14.40;99.90;;;;;;2072846;28;20462;-67
2023/08/27 03:23:58;;;;;;;5.03;3.90;;;14.40;99.90;;;;;;2054203;28;20911;-68
2023/08/27 03:25:01;;;;;;;4.27;3.50;;;14.40;99.90;;;;;;2058726;28;20229;-68
2023/08/27 03:26:03;;;;;;;4.63;3.93;;;14.40;99.90;;;;;;2063329;28;20229;-71
2023/08/27 03:27:04;;;;;;;5.78;4.47;;;14.40;99.90;;;;;;2073063;28;20438;-67
2023/08/27 03:28:04;;;;;;;3.67;3.30;;;14.50;99.90;;;;;;2062488;28;20221;-68
2023/08/27 03:29:05;;;;;;;4.17;3.47;;;14.40;99.90;;;;;;2063109;28;20249;-67
2023/08/27 03:30:08;;;;;;;6.40;4.10;;;14.40;99.90;;;;;;2062526;28;20190;-66
2023/08/27 03:31:08;;;;;;;4.63;3.70;;;14.40;99.90;;;;;;2062836;28;20206;-67
2023/08/27 03:32:11;;;;;;;4.50;3.23;;;14.40;99.90;;;;;;2062633;28;20451;-67
2023/08/27 03:33:11;;;;;;;3.63;3.10;;;14.40;99.90;;;;;;2054623;28;20702;-67
2023/08/27 03:34:12;;;;;;;4.17;3.77;;;14.40;99.90;;;;;;2062718;28;20420;-67
2023/08/27 03:35:13;;;;;;;4.87;3.60;;;14.30;99.90;;;;;;2051014;28;20664;-68
2023/08/27 03:36:14;;;;;;;3.70;3.40;;;14.30;99.90;;;;;;2042991;28;20188;-67
2023/08/27 03:37:14;;;;;;;4.40;3.70;;;14.30;99.90;;;;;;2052373;28;20218;-67
2023/08/27 03:38:15;;;;;;;5.27;3.77;;;14.20;99.90;;;;;;2054821;28;20194;-67
2023/08/27 03:39:16;;;;;;;4.00;3.60;;;14.20;99.90;;;;;;2062944;28;20194;-67
2023/08/27 03:40:17;;;;;;;3.73;3.33;;;14.20;99.90;;;;;;2063084;28;20721;-68
2023/08/27 03:41:17;;;;;;;3.83;3.43;;;14.20;99.90;;;;;;2062038;28;20617;-68
2023/08/27 03:42:18;;;;;;;5.93;4.07;;;14.10;99.90;;;;;;2062035;28;20189;-69
2023/08/27 03:43:19;;;;;;;3.73;3.43;;;14.20;99.90;;;;;;2070557;28;20221;-67
2023/08/27 03:44:19;;;;;;;4.50;3.63;;;14.20;99.90;;;;;;2070405;28;20267;-67
2023/08/27 03:45:20;;;;;;;4.50;3.30;;;14.20;99.90;;;;;;2060773;28;20560;-68
2023/08/27 03:46:21;;;;;;;4.80;3.70;;;14.20;99.90;;;;;;2066914;28;20197;-67
2023/08/27 03:47:22;;;;;;;3.50;3.00;;;14.10;99.90;;;;;;2066381;28;20228;-67
2023/08/27 03:48:23;;;;;;;3.80;3.00;;;14.20;99.90;;;;;;2066722;28;20697;-66
2023/08/27 03:49:24;;;;;;;3.50;3.20;;;14.10;99.90;;;;;;2066083;28;20264;-67
2023/08/27 03:50:25;;;;;;;3.37;3.07;;;14.20;99.90;;;;;;2066306;28;20871;-67
2023/08/27 03:51:28;;;;;;;2.80;2.60;;;14.20;99.90;;;;;;2065617;28;20501;-67
2023/08/27 03:52:29;;;;;;;2.33;2.13;;;14.20;99.90;;;;;;2054723;28;20330;-67
2023/08/27 03:53:29;;;;;;;2.53;2.33;;;14.10;99.90;;;;;;2056765;28;20531;-66
2023/08/27 03:54:30;;;;;;;3.23;2.70;;;14.10;99.90;;;;;;2060861;28;20221;-67
2023/08/27 03:55:36;;;;;;;3.03;2.67;;;14.10;99.90;;;;;;2068469;28;20230;-66
2023/08/27 03:56:37;;;;;;;2.22;2.03;;;14.10;99.90;;;;;;2066026;28;20229;-67
2023/08/27 03:57:38;;;;;;;4.70;2.60;;;14.10;99.90;;;;;;2063317;28;20330;-67
2023/08/27 03:58:39;;;;;;;2.33;2.13;;;14.00;99.90;;;;;;2048784;28;20604;-67
2023/08/27 03:59:39;;;;;;;3.63;2.30;;;14.00;99.90;;;;;;2040626;28;20470;-67
2023/08/27 04:00:40;;;;;;;2.83;2.00;;;14.00;99.90;;;;;;2062906;28;20242;-67
2023/08/27 04:01:41;;;;;;;2.30;2.10;;;14.00;99.90;;;;;;2061955;28;20341;-66
2023/08/27 04:02:44;;;;;;;3.43;2.43;;;14.10;99.90;;;;;;2048052;28;20679;-68
2023/08/27 04:03:45;;;;;;;7.22;2.22;;;14.10;99.90;;;;;;2048684;28;20235;-68
2023/08/27 04:04:46;;;;;;;3.00;2.50;;;14.00;99.90;;;;;;2061586;28;20233;-68
2023/08/27 04:05:50;;;;;;;2.53;2.33;;;14.10;99.90;;;;;;2063039;28;20280;-67
2023/08/27 04:06:51;;;;;;;3.60;1.90;;;14.00;99.90;;;;;;2060709;28;20229;-68
2023/08/27 04:07:51;;;;;;;4.30;2.17;;;14.10;99.90;;;;;;2063974;28;20526;-68
2023/08/27 04:08:52;;;;;;;5.33;2.20;;;14.10;99.90;;;;;;2064212;28;20468;-68
2023/08/27 04:09:53;;;;;;;4.10;2.30;;;14.20;99.90;;;;;;2063240;28;20261;-66
2023/08/27 04:10:54;;;;;;;4.77;2.00;;;14.20;99.90;;;;;;2063251;28;20226;-68
2023/08/27 04:11:55;;;;;;;4.88;2.47;;;14.30;99.90;;;;;;2062768;28;20722;-68
2023/08/27 04:12:57;;;;;;;3.03;2.05;;;14.30;99.90;;;;;;2044932;28;20234;-67
2023/08/27 04:13:57;;;;;;;2.60;2.07;;;14.40;99.90;;;;;;2042302;28;20314;-68
2023/08/27 04:14:58;;;;;;;5.17;2.10;;;14.40;99.90;;;;;;2052417;28;20464;-67
2023/08/27 04:16:03;;;;;;;2.07;1.87;;;14.40;99.90;;;;;;2056634;28;20231;-67
2023/08/27 04:17:04;;;;;;;2.10;1.70;;;14.30;99.90;;;;;;2057181;28;20288;-67
2023/08/27 04:18:05;;;;;;;4.20;2.00;;;14.30;99.90;;;;;;2062198;28;20178;-67
2023/08/27 04:19:05;;;;;;;2.33;1.80;;;14.20;99.90;;;;;;2063015;28;20675;-68
2023/08/27 04:20:08;;;;;;;2.27;2.00;;;14.20;99.90;;;;;;2067290;28;20188;-68
2023/08/27 04:21:09;;;;;;;2.50;1.93;;;14.20;99.90;;;;;;2061772;28;20232;-67
2023/08/27 04:22:10;;;;;;;1.97;1.70;;;14.20;99.90;;;;;;2062932;28;20987;-67
2023/08/27 04:23:10;;;;;;;1.90;1.67;;;14.20;99.90;;;;;;2062870;28;20171;-68
2023/08/27 04:24:11;;;;;;;2.60;2.10;;;14.10;99.90;;;;;;2062422;28;20183;-68
2023/08/27 04:25:15;;;;;;;3.00;2.10;;;14.10;99.90;;;;;;2063174;28;20194;-68
2023/08/27 04:26:18;;;;;;;3.08;1.90;;;14.20;99.90;;;;;;2065850;28;20510;-68
2023/08/27 04:27:18;;;;;;;2.53;2.03;;;14.30;99.90;;;;;;2062838;28;20175;-68
2023/08/27 04:28:20;;;;;;;1.97;1.70;;;14.40;99.90;;;;;;2062940;28;20611;-65
2023/08/27 04:29:21;;;;;;;4.60;1.75;;;14.40;99.90;;;;;;2054337;28;20194;-68
2023/08/27 04:30:22;;;;;;;2.50;2.00;;;14.40;99.90;;;;;;2054789;28;20234;-68
2023/08/27 04:31:23;;;;;;;3.25;1.60;;;14.40;99.90;;;;;;2070902;28;20382;-68
2023/08/27 04:32:25;;;;;;;2.17;1.70;;;14.40;99.90;;;;;;2071595;28;20236;-67
2023/08/27 04:33:26;;;;;;;2.40;1.75;;;14.30;99.90;;;;;;2060981;28;20731;-68
2023/08/27 04:34:27;;;;;;;1.80;1.60;;;14.30;99.90;;;;;;2062993;28;20299;-68
2023/08/27 04:35:28;;;;;;;1.77;1.50;;;14.30;99.90;;;;;;2062810;28;20498;-68
2023/08/27 04:36:30;;;;;;;2.00;1.50;;;14.20;99.90;;;;;;2062248;28;20237;-68
2023/08/27 04:37:31;;;;;;;2.00;1.80;;;14.10;99.90;;;;;;2063100;28;20542;-68
2023/08/27 04:38:31;;;;;;;2.20;1.50;;;14.00;99.90;;;;;;2064463;28;20230;-68
2023/08/27 04:39:32;;;;;;;2.30;1.77;;;14.00;99.90;;;;;;2064175;28;20598;-68
2023/08/27 04:40:33;;;;;;;2.50;1.80;;;14.10;99.90;;;;;;2062964;28;20448;-68
2023/08/27 04:41:34;;;;;;;3.40;1.80;;;14.10;99.90;;;;;;2061842;28;20226;-69
2023/08/27 04:42:34;;;;;;;2.20;1.60;;;14.00;99.90;;;;;;2062109;28;20253;-68
2023/08/27 04:43:36;;;;;;;3.03;1.60;;;14.10;99.90;;;;;;2062699;28;20226;-68
2023/08/27 04:44:36;;;;;;;3.60;1.80;;;14.10;99.90;;;;;;2063338;28;21003;-69
2023/08/27 04:45:37;;;;;;;1.90;1.70;;;14.10;99.90;;;;;;2062744;28;20320;-68
2023/08/27 04:46:38;;;;;;;2.27;1.63;;;14.20;99.90;;;;;;2063544;28;20674;-68
2023/08/27 04:47:39;;;;;;;2.03;1.60;;;14.30;99.90;;;;;;2061810;28;20884;-69
2023/08/27 04:48:39;;;;;;;2.30;1.80;;;14.40;99.90;;;;;;2062272;28;20237;-67
2023/08/27 04:49:40;;;;;;;1.73;1.50;;;14.50;99.90;;;;;;2046578;28;20696;-68
2023/08/27 04:50:48;;;;;;;2.03;1.83;;;14.50;99.90;;;;;;2062149;28;20242;-68
2023/08/27 04:51:49;;;;;;;2.10;1.70;;;14.50;99.90;;;;;;2062279;28;20265;-67
2023/08/27 04:52:49;;;;;;;3.00;1.50;;;14.50;99.90;;;;;;2062565;28;20467;-66
2023/08/27 04:53:50;;;;;;;2.33;1.80;;;14.60;99.90;;;;;;2070216;28;20225;-67
2023/08/27 04:54:51;;;;;;;1.77;1.60;;;14.60;99.90;;;;;;2061778;28;20230;-68
2023/08/27 04:55:51;;;;;;;2.53;1.57;;;14.60;99.90;;;;;;2060630;28;20637;-66
2023/08/27 04:56:52;;;;;;;3.80;1.90;;;14.70;99.90;;;;;;2062352;28;20230;-66
2023/08/27 04:57:53;;;;;;;2.80;1.90;;;14.70;99.90;;;;;;2063155;28;20238;-68
2023/08/27 04:58:54;;;;;;;2.43;1.90;;;14.80;99.90;;;;;;2063052;28;20249;-67
2023/08/27 04:59:55;;;;;;;1.93;1.67;;;14.80;99.90;;;;;;2062806;28;20234;-68
2023/08/27 05:00:55;;;;;;;2.33;2.00;;;14.80;99.90;;;;;;2069908;28;20986;-67
2023/08/27 05:01:59;;;;;;;3.17;1.97;;;14.70;99.90;;;;;;2061469;28;20464;-67
2023/08/27 05:03:01;;;;;;;2.85;1.90;;;14.60;99.90;;;;;;2043501;28;20242;-66
2023/08/27 05:04:02;;;;;;;2.23;2.03;;;14.50;99.90;;;;;;2061276;28;20218;-69
2023/08/27 05:05:03;;;;;;;2.53;2.03;;;14.60;99.90;;;;;;2062646;28;20420;-67
2023/08/27 05:06:04;;;;;;;2.37;2.17;;;14.60;99.90;;;;;;2070379;28;20178;-67
2023/08/27 05:07:05;;;;;;;3.97;2.57;;;14.60;99.90;;;;;;2070611;28;20914;-67
2023/08/27 05:08:06;;;;;;;3.50;2.20;;;14.60;99.90;;;;;;2062148;28;20240;-67
2023/08/27 05:09:06;;;;;;;3.17;1.60;;;14.70;99.90;;;;;;2064018;28;20177;-66
2023/08/27 05:10:07;;;;;;;4.33;1.67;;;14.60;99.90;;;;;;2055154;28;20182;-67
2023/08/27 05:11:09;;;;;;;2.33;1.50;;;14.50;99.90;;;;;;2055721;28;20683;-67
2023/08/27 05:12:09;;;;;;;2.20;1.70;;;14.50;99.90;;;;;;2062847;28;20825;-67
2023/08/27 05:13:10;;;;;;;2.77;1.50;;;14.60;99.90;;;;;;2062021;28;20190;-68
2023/08/27 05:14:11;;;;;;;2.53;2.00;;;14.60;99.90;;;;;;2053864;28;20193;-68
2023/08/27 05:15:12;;;;;;;2.40;2.17;;;14.60;99.90;;;;;;2061891;28;20436;-66
2023/08/27 05:16:12;;;;;;;4.03;2.10;;;14.60;99.90;;;;;;2063398;28;20182;-68
2023/08/27 05:17:13;;;;;;;4.73;2.13;;;14.60;99.90;;;;;;2062635;28;20183;-68
2023/08/27 05:18:14;;;;;;;2.47;2.00;;;14.60;99.90;;;;;;2063555;28;20191;-67
2023/08/27 05:19:15;;;;;;;2.37;1.67;;;14.70;99.90;;;;;;2063316;28;20217;-68
2023/08/27 05:20:16;;;;;;;2.17;1.50;;;14.70;99.90;;;;;;2064233;28;20246;-67
2023/08/27 05:21:16;;;;;;;3.40;1.80;;;14.70;99.90;;;;;;2065479;28;20201;-68